createdAt,value
2022-08-19T00:01:31.251Z,101765.44
2022-08-19T00:03:59.757Z,101771.97
2022-08-19T00:06:28.101Z,101751.50
2022-08-19T00:08:54.999Z,101773.66
2022-08-19T00:11:25.629Z,101767.66
2022-08-19T00:13:53.793Z,101777.13
2022-08-19T00:16:25.206Z,101767.38
2022-08-19T00:18:53.210Z,101778.06
2022-08-19T00:21:19.904Z,101789.00
2022-08-19T00:23:47.094Z,101782.94
2022-08-19T00:26:13.784Z,101800.81
2022-08-19T00:28:40.567Z,101787.25
2022-08-19T00:31:08.934Z,101788.34
2022-08-19T00:33:36.259Z,101794.69
2022-08-19T00:36:09.700Z,101788.84
2022-08-19T00:38:39.058Z,101795.06
2022-08-19T00:41:06.685Z,101803.38
2022-08-19T00:43:34.167Z,101806.19
2022-08-19T00:46:04.653Z,101806.66
2022-08-19T00:48:32.822Z,101815.38
2022-08-19T00:50:59.751Z,101814.75
2022-08-19T00:53:29.668Z,101815.81
2022-08-19T00:55:59.185Z,101813.53
2022-08-19T00:58:30.024Z,101822.38
2022-08-19T01:00:57.218Z,101816.44
2022-08-19T01:03:24.769Z,101818.50
2022-08-19T01:05:54.892Z,101812.63
2022-08-19T01:08:21.931Z,101823.09
2022-08-19T01:10:52.709Z,101823.09
2022-08-19T01:13:23.842Z,101801.91
2022-08-19T01:16:00.060Z,101830.56
2022-08-19T01:18:28.363Z,101827.38
2022-08-19T01:20:59.027Z,101840.81
2022-08-19T01:23:43.537Z,101821.88
2022-08-19T01:26:22.577Z,101835.78
2022-08-19T01:28:53.463Z,101836.97
2022-08-19T01:31:26.725Z,101839.03
2022-08-19T01:33:59.033Z,101828.81
2022-08-19T01:36:32.038Z,101835.03
2022-08-19T01:39:00.314Z,101841.28
2022-08-19T01:41:27.153Z,101830.00
2022-08-19T01:44:12.347Z,101841.69
2022-08-19T01:46:42.072Z,101845.56
2022-08-19T01:49:09.388Z,101824.75
2022-08-19T01:51:40.227Z,101833.44
2022-08-19T01:54:09.270Z,101852.81
2022-08-19T01:56:36.475Z,101838.91
2022-08-19T01:59:08.003Z,101849.22
2022-08-19T02:01:37.216Z,101852.88
2022-08-19T02:04:04.071Z,101856.25
2022-08-19T02:06:30.835Z,101845.03
2022-08-19T02:08:57.811Z,101854.50
2022-08-19T02:11:32.654Z,101855.56
2022-08-19T02:14:03.197Z,101848.63
2022-08-19T02:16:30.446Z,101865.38
2022-08-19T02:18:58.034Z,101842.75
2022-08-19T02:21:27.034Z,101834.41
2022-08-19T02:23:53.666Z,101867.09
2022-08-19T02:26:21.445Z,101869.81
2022-08-19T02:28:49.564Z,101870.56
2022-08-19T02:31:19.478Z,101871.28
2022-08-19T02:33:47.969Z,101853.16
2022-08-19T02:36:21.130Z,101860.03
2022-08-19T02:38:55.145Z,101873.19
2022-08-19T02:41:40.396Z,101882.84
2022-08-19T02:44:30.017Z,101874.91
2022-08-19T02:46:53.786Z,101830.91
2022-08-19T02:49:20.820Z,101891.66
2022-08-19T02:51:48.141Z,101890.72
2022-08-19T02:54:16.420Z,101889.66
2022-08-19T02:56:44.692Z,101892.19
2022-08-19T02:59:12.904Z,101891.44
2022-08-19T03:01:42.397Z,101892.41
2022-08-19T03:04:12.004Z,101895.06
2022-08-19T03:06:41.212Z,101895.94
2022-08-19T03:09:08.593Z,101906.72
2022-08-19T03:11:35.262Z,101907.66
2022-08-19T03:14:03.617Z,101919.53
2022-08-19T03:16:33.355Z,101925.81
2022-08-19T03:19:02.516Z,101918.81
2022-08-19T03:21:32.103Z,101922.09
2022-08-19T03:24:02.173Z,101886.78
2022-08-19T03:26:29.864Z,101930.09
2022-08-19T14:11:34.303Z,102058.53
2022-08-19T14:14:01.020Z,102066.22
2022-08-19T14:16:47.931Z,102049.44
2022-08-19T14:19:14.647Z,102053.88
2022-08-19T14:21:42.189Z,102055.97
2022-08-19T14:24:09.921Z,102049.78
2022-08-19T14:26:36.619Z,102052.09
2022-08-19T14:29:03.385Z,102046.50
2022-08-19T14:31:30.934Z,102049.31
2022-08-19T14:33:57.748Z,102045.06
2022-08-19T14:36:24.422Z,102049.19
2022-08-19T14:38:51.195Z,102048.28
2022-08-19T14:41:23.546Z,102045.28
2022-08-19T14:43:52.293Z,102043.47
2022-08-19T14:46:21.648Z,102040.81
2022-08-19T14:48:50.681Z,102051.97
2022-08-19T14:51:21.460Z,102040.88
2022-08-19T14:53:51.279Z,102026.25
2022-08-19T14:56:21.196Z,102035.69
2022-08-19T14:58:48.261Z,102040.91
2022-08-19T15:01:15.074Z,102040.50
2022-08-19T15:03:42.450Z,102034.59
2022-08-19T15:06:12.854Z,102039.72
2022-08-19T15:08:42.581Z,102042.72
2022-08-19T15:11:11.865Z,102026.34
2022-08-19T15:13:40.166Z,102029.38
2022-08-19T15:16:07.125Z,102049.41
2022-08-19T15:18:46.220Z,102047.84
2022-08-19T15:21:15.387Z,102046.41
2022-08-19T15:23:42.085Z,102047.09
2022-08-19T15:26:14.383Z,102046.44
2022-08-19T15:28:43.217Z,102045.00
2022-08-19T15:31:24.024Z,102045.22
2022-08-19T15:33:58.424Z,102059.22
2022-08-19T15:36:26.668Z,102055.47
2022-08-19T15:38:53.448Z,102052.56
2022-08-19T15:41:43.865Z,102055.56
2022-08-19T15:44:18.612Z,102048.53
2022-08-19T15:46:48.690Z,102056.88
2022-08-19T15:49:18.105Z,102048.63
2022-08-19T15:51:51.175Z,102044.41
2022-08-19T15:54:21.666Z,102066.09
2022-08-19T15:57:18.351Z,102068.66
2022-08-19T16:00:03.706Z,102052.88
2022-08-19T16:02:53.632Z,102069.75
2022-08-19T16:05:43.339Z,102069.75
2022-08-19T16:08:12.822Z,102070.63
2022-08-19T16:10:40.583Z,102072.25
2022-08-19T16:13:29.013Z,102065.19
2022-08-19T16:15:57.474Z,102065.75
2022-08-19T16:18:25.115Z,102076.69
2022-08-19T16:20:54.124Z,102073.31
2022-08-19T16:23:20.801Z,102074.97
2022-08-19T16:25:47.544Z,102072.72
2022-08-19T16:28:15.187Z,102078.63
2022-08-19T16:30:43.001Z,102088.47
2022-08-19T16:33:22.864Z,102085.59
2022-08-19T16:35:56.098Z,102094.81
2022-08-19T16:38:34.333Z,102104.41
2022-08-19T16:41:01.616Z,102096.88
2022-08-19T16:43:30.756Z,102100.09
2022-08-19T16:45:57.959Z,102101.06
2022-08-19T16:48:28.954Z,102096.84
2022-08-19T16:51:00.460Z,102105.03
2022-08-19T16:53:29.202Z,102099.84
2022-08-19T16:55:59.677Z,102104.94
2022-08-19T16:58:29.255Z,102098.78
2022-08-19T17:01:01.885Z,102114.94
2022-08-19T17:03:36.029Z,102107.28
2022-08-19T17:06:17.815Z,102120.22
2022-08-19T17:08:49.488Z,102098.81
2022-08-19T17:11:18.826Z,102070.44
